EFKI

Kajaani Airport

Kajaani, Finland
TAF EFKI 230530Z 2306/2315 20002KT 9999 SCT025 PROB40 TEMPO 2306/2308 BKN008
Issued Valid From Valid To
Jan-23 @ 05:30 UTC
(2 hours ago)
Jan-23 @ 06:00 UTC
(an hour ago)
Jan-23 @ 15:00 UTC
(in 8 hours)
Jan-23 @ 06:00 to Jan-23 @ 15:00
TAF EFKI 230530Z 2306/2315 20002KT 9999 SCT025
Wind Visibility Clouds
200° at 2 knots 10,000+ meters
  • Scattered at 2,500' AGL
Temporary  (Probability 40%) Jan-23 @ 06:00 to Jan-23 @ 08:00
PROB40 TEMPO 2306/2308 BKN008
Clouds
  • Broken at 800' AGL
TAF EFKI 230530Z 2306/2315 20002KT 9999 SCT025 PROB40 TEMPO 2306/2308 BKN008
Issued Jan-23 @ 05:30 UTC
(2 hours ago)
Valid From Jan-23 @ 06:00 UTC
(an hour ago)
Valid To Jan-23 @ 15:00 UTC
(in 8 hours)
Jan-23 @ 06:00 - Jan-23 @ 15:00
Wind Visibility
200° at 2 knots 10,000+ meters
Clouds
  • Scattered at 2,500' AGL
Probability 40% Temporary Jan-23 @ 06:00 - Jan-23 @ 08:00
Clouds
  • Broken at 800' AGL